Terminal Aerodrome Forecast
Issued by NWS

Home | Current Version | Previous Version | Text Only | Print | Product List | Glossary On
Versions: 1 2 3 4 5 6 7 8 9 10 11 12 13 14
000
FTUS43 KBIS 102300
TAFMOT
TAF
KMOT 102339Z 1100/1124 16011KT P6SM SKC
     FM110200 18009KT P6SM VCTS SCT040CB
     FM110500 30007KT P6SM FEW100=

USA.gov is the U.S. government's official web portal to all federal, state and local government web resources and services.